Kezdőlap
METAR-TAF:

METAR-TAF

Repülőterek :

Eastern Slopes Regional Airport

Fryeburg, Maine, Amerikai Egyesült Államok

földrajzi szélesség: 43-59-21N, földrajzi hosszúság: 070-57-01W, magasság: 137 m

Jelenlegi meteorológiai megfigyelések

A jelentés 53 perccel ezelõtt készült, 16:54 UTC
Nyugati szél 8 kt
Hőmérséklet 6°C
Páratartalom 42%
Légköri nyomás 996 hPa
Látótávolság: 16.1 km
Szórványos felhőzet 6000 lábon

METAR: KIZG 151654Z AUTO 26008KT 10SM SCT060 06/M06 A2940 RMK AO2 PK WND 28032/1603 SLP957 T00611056

Idő: 12:47 (17:47 UTC)


TAF: hiányzik

Meteorológiai megfigyelések és előrejelzések több, mint 4000 repülőtéren (METAR és TAF jelentéseket).

A térképen piros és sárga pontok jelzik az elérhető meteorológiai állomásokat.

Mozgassa az egeret a pont fölött, hogy megjelenjen az állomás neve.

Azután kattintson az időjárási megfigyelések és előrejelzések megtekintéséhez.

A térkép megváltoztatása: kattintson a fekete keresztel jelölt zöld gombra ráközelítéshez, a vonallal jelölt zöld gombra távolításhoz, vagy a zöld nyilakra a szomszédos térképek eléréséhez.


METAR-TAF: